createdAt,value
2019-05-05T00:02:01.037Z,8.07
2019-05-05T00:04:54.538Z,11.87
2019-05-05T00:07:31.450Z,6.80
2019-05-05T00:10:04.587Z,7.17
2019-05-05T00:12:51.693Z,9.40
2019-05-05T00:15:48.200Z,7.33
2019-05-05T00:18:25.260Z,7.50
2019-05-05T00:20:57.880Z,8.00
2019-05-05T00:23:29.784Z,6.60
2019-05-05T00:26:04.264Z,8.23
2019-05-05T00:28:35.799Z,7.87
2019-05-05T00:31:07.439Z,6.57
2019-05-05T00:33:39.015Z,7.90
2019-05-05T00:36:10.439Z,9.20
2019-05-05T00:38:41.976Z,6.60
2019-05-05T00:41:14.843Z,7.07
2019-05-05T00:43:48.163Z,7.70
2019-05-05T00:46:25.193Z,9.97
2019-05-05T00:48:56.624Z,6.73
2019-05-05T00:51:28.239Z,5.67
2019-05-05T00:53:59.882Z,8.00
2019-05-05T00:56:31.176Z,6.53
2019-05-05T00:59:06.171Z,8.40
2019-05-05T01:02:00.046Z,8.77
2019-05-05T01:04:41.574Z,9.67
2019-05-05T01:07:14.311Z,9.40
2019-05-05T01:09:46.847Z,9.33
2019-05-05T01:12:18.252Z,6.60
2019-05-05T01:14:49.791Z,7.90
2019-05-05T01:17:21.325Z,7.67
2019-05-05T01:20:01.191Z,7.63
2019-05-05T01:22:26.113Z,8.27
2019-05-05T01:24:57.547Z,9.10
2019-05-05T01:27:29.044Z,7.37
2019-05-05T01:30:00.863Z,7.67
2019-05-05T01:32:36.247Z,9.07
2019-05-05T01:35:08.368Z,7.37
2019-05-05T01:37:45.272Z,9.47
2019-05-05T01:40:36.433Z,9.80
2019-05-05T01:43:07.935Z,8.90
2019-05-05T01:45:39.636Z,7.17
2019-05-05T01:48:11.069Z,7.50
2019-05-05T01:50:42.536Z,8.63
2019-05-05T01:53:15.225Z,6.33
2019-05-05T01:55:47.318Z,7.77
2019-05-05T01:58:19.450Z,9.67
2019-05-05T02:00:51.164Z,7.90
2019-05-05T02:03:24.366Z,6.43
2019-05-05T02:05:56.192Z,8.43
2019-05-05T02:08:27.649Z,7.77
2019-05-05T02:10:59.156Z,8.07
2019-05-05T02:13:30.818Z,6.97
2019-05-05T02:16:04.396Z,6.60
2019-05-05T02:18:35.639Z,8.83
2019-05-05T02:21:08.610Z,7.53
2019-05-05T02:23:40.105Z,9.57
2019-05-05T02:26:11.617Z,10.00
2019-05-05T02:28:58.919Z,7.40
2019-05-05T02:31:49.474Z,7.60
2019-05-05T02:34:21.091Z,8.20
2019-05-05T02:36:52.553Z,6.90
2019-05-05T02:39:23.943Z,7.17
2019-05-05T02:41:56.586Z,9.67
2019-05-05T02:44:31.307Z,8.80
2019-05-05T02:47:18.427Z,8.23
2019-05-05T02:49:54.687Z,10.47
2019-05-05T02:52:25.083Z,8.77
2019-05-05T02:54:57.007Z,9.50
2019-05-05T02:57:29.052Z,10.00
2019-05-05T03:00:09.185Z,8.43
2019-05-05T03:02:40.751Z,10.40
2019-05-05T03:05:17.439Z,9.03
2019-05-05T03:07:49.406Z,8.23
2019-05-05T03:10:21.766Z,8.47
2019-05-05T03:12:54.454Z,9.13
2019-05-05T03:15:44.038Z,9.43
2019-05-05T03:18:16.117Z,9.50
2019-05-05T03:21:00.802Z,10.27
2019-05-05T03:23:21.719Z,13.43
2019-05-05T03:25:54.580Z,7.67
2019-05-05T03:28:28.648Z,10.57
2019-05-05T03:31:00.369Z,9.43
2019-05-05T03:33:34.987Z,9.13
2019-05-05T03:36:06.117Z,9.93
2019-05-05T03:38:38.616Z,9.83
2019-05-05T03:41:15.575Z,10.27
2019-05-05T03:44:07.774Z,8.63
2019-05-05T03:46:39.826Z,9.97
2019-05-05T03:49:14.010Z,10.13
2019-05-05T03:51:46.108Z,9.27
2019-05-05T03:54:18.766Z,10.13
2019-05-05T03:56:54.529Z,9.67
2019-05-05T03:59:26.030Z,10.20
2019-05-05T04:02:14.186Z,11.63
2019-05-05T04:04:49.766Z,9.50
2019-05-05T04:07:21.398Z,11.70
2019-05-05T04:09:54.232Z,9.93
2019-05-05T04:12:26.578Z,12.57
2019-05-05T04:15:00.120Z,10.27
2019-05-05T04:18:05.545Z,12.47
2019-05-05T04:20:44.042Z,8.10
2019-05-05T04:23:15.039Z,11.00
2019-05-05T04:25:46.722Z,12.10
2019-05-05T04:28:18.128Z,9.27
2019-05-05T04:30:49.759Z,9.90
2019-05-05T04:33:23.520Z,10.97
2019-05-05T04:35:54.658Z,14.67
2019-05-05T04:38:26.047Z,14.70
2019-05-05T04:40:57.385Z,12.27
2019-05-05T04:43:29.061Z,14.07
2019-05-05T04:46:00.314Z,10.93
2019-05-05T04:48:46.641Z,16.23
2019-05-05T04:51:22.055Z,13.70
2019-05-05T04:54:11.192Z,12.43
2019-05-05T04:56:44.690Z,12.80
2019-05-05T04:59:15.851Z,13.50
2019-05-05T05:01:48.756Z,13.13
2019-05-05T05:04:48.357Z,14.50
2019-05-05T05:07:20.078Z,14.77
2019-05-05T05:09:53.868Z,11.43
2019-05-05T05:12:25.146Z,13.53
2019-05-05T05:14:56.681Z,13.40
2019-05-05T05:17:39.571Z,12.20
2019-05-05T05:20:11.312Z,11.67
2019-05-05T05:22:44.007Z,12.97
2019-05-05T05:25:16.843Z,15.63
2019-05-05T05:27:48.381Z,13.87
2019-05-05T05:30:20.155Z,14.17
2019-05-05T05:32:53.662Z,15.50
2019-05-05T05:35:24.664Z,12.43
2019-05-05T05:37:57.757Z,11.47
2019-05-05T05:40:35.621Z,12.57
2019-05-05T05:43:09.042Z,16.33
2019-05-05T05:45:54.160Z,11.30
2019-05-05T05:48:34.232Z,11.97
2019-05-05T05:51:14.674Z,12.43
2019-05-05T05:53:46.112Z,12.63
2019-05-05T05:56:17.392Z,12.37
2019-05-05T05:58:49.009Z,12.27
2019-05-05T06:01:21.432Z,12.77
2019-05-05T06:03:53.628Z,9.27
2019-05-05T06:06:25.027Z,12.63
2019-05-05T06:08:56.309Z,11.07
2019-05-05T06:11:27.657Z,11.77
2019-05-05T06:13:59.465Z,8.77
2019-05-05T06:16:30.805Z,10.73
2019-05-05T06:19:03.619Z,10.70
2019-05-05T06:21:35.333Z,12.53
2019-05-05T06:24:06.802Z,10.73
2019-05-05T06:26:38.158Z,11.33
2019-05-05T06:29:09.605Z,9.13
2019-05-05T06:31:41.075Z,9.87
2019-05-05T06:34:13.990Z,8.77
2019-05-05T06:36:45.671Z,9.17
2019-05-05T06:39:17.588Z,9.27
2019-05-05T06:42:06.742Z,9.60
2019-05-05T06:44:41.751Z,8.03
2019-05-05T06:47:19.661Z,9.33
2019-05-05T06:49:50.984Z,9.90
2019-05-05T06:52:24.732Z,8.13
2019-05-05T06:54:56.060Z,7.80
2019-05-05T06:57:28.172Z,8.30
2019-05-05T06:59:59.737Z,8.50
2019-05-05T07:02:31.181Z,7.60
2019-05-05T07:05:04.062Z,8.77
2019-05-05T07:07:35.823Z,9.17
2019-05-05T07:10:07.693Z,8.47
2019-05-05T07:12:39.327Z,7.37
2019-05-05T07:15:10.876Z,8.73
2019-05-05T07:17:44.129Z,8.10
2019-05-05T07:20:15.836Z,9.53
2019-05-05T07:23:01.312Z,8.13
2019-05-05T07:25:24.209Z,11.87
2019-05-05T07:27:55.519Z,9.47
2019-05-05T07:30:33.599Z,8.37
2019-05-05T07:33:05.222Z,8.03
2019-05-05T07:36:19.129Z,7.83
2019-05-05T07:38:50.447Z,9.07
2019-05-05T07:41:23.488Z,8.47
2019-05-05T07:43:55.066Z,6.03
2019-05-05T07:46:30.432Z,6.13
2019-05-05T07:49:03.741Z,8.90
2019-05-05T07:51:34.962Z,10.27
2019-05-05T07:54:08.037Z,6.30
2019-05-05T07:56:39.565Z,6.10
2019-05-05T07:59:10.902Z,7.00
2019-05-05T08:01:45.813Z,7.17
2019-05-05T08:04:15.600Z,8.80
2019-05-05T08:06:46.893Z,8.27
2019-05-05T08:09:21.564Z,6.97
2019-05-05T08:11:51.496Z,5.80
2019-05-05T08:14:24.588Z,7.03
2019-05-05T08:17:06.255Z,5.87
2019-05-05T08:19:47.747Z,7.43
2019-05-05T08:22:19.160Z,7.43
2019-05-05T08:25:03.991Z,7.50
2019-05-05T08:27:53.910Z,9.00
2019-05-05T08:30:48.099Z,7.40
2019-05-05T08:33:19.495Z,8.97
2019-05-05T08:35:50.844Z,7.13
2019-05-05T08:38:24.111Z,8.33
2019-05-05T08:40:55.517Z,6.60
2019-05-05T08:43:26.887Z,5.67
2019-05-05T08:45:58.252Z,6.70
2019-05-05T08:48:30.002Z,6.23
2019-05-05T08:51:01.393Z,8.87
2019-05-05T08:53:44.122Z,5.97
2019-05-05T08:56:06.755Z,6.83
2019-05-05T08:58:38.480Z,7.40
2019-05-05T09:01:10.547Z,5.90
2019-05-05T09:03:44.152Z,8.47
2019-05-05T09:06:15.124Z,6.90
2019-05-05T09:08:46.561Z,6.97
2019-05-05T09:11:17.935Z,7.60
2019-05-05T09:13:53.556Z,6.17
2019-05-05T09:16:24.211Z,6.17
2019-05-05T09:19:04.129Z,6.70
2019-05-05T09:21:35.517Z,7.40
2019-05-05T09:24:24.949Z,7.10
2019-05-05T09:27:06.755Z,5.50
2019-05-05T09:29:40.599Z,6.37
2019-05-05T09:32:13.888Z,5.83
2019-05-05T09:34:45.003Z,7.40
2019-05-05T09:37:16.426Z,7.27
2019-05-05T09:39:47.871Z,9.60
2019-05-05T09:42:19.536Z,9.43
2019-05-05T09:44:51.037Z,6.07
2019-05-05T09:47:24.046Z,6.57
2019-05-05T09:49:55.959Z,5.90
2019-05-05T09:52:27.350Z,4.93
2019-05-05T09:54:58.915Z,6.43
2019-05-05T09:57:30.337Z,7.07
2019-05-05T10:00:14.074Z,5.40
2019-05-05T10:02:45.542Z,5.50
2019-05-05T10:05:17.545Z,5.53
2019-05-05T10:07:49.338Z,6.13
2019-05-05T10:10:20.825Z,4.07
2019-05-05T10:12:53.003Z,8.80
2019-05-05T10:15:25.720Z,7.73
2019-05-05T10:17:57.105Z,5.27
2019-05-05T10:20:28.460Z,5.63
2019-05-05T10:22:59.703Z,5.40
2019-05-05T10:25:38.783Z,6.03
2019-05-05T10:28:10.332Z,6.17
2019-05-05T10:30:41.997Z,6.93
2019-05-05T10:33:14.283Z,9.33
2019-05-05T10:35:45.770Z,7.50
2019-05-05T10:38:17.103Z,5.97
2019-05-05T10:40:48.845Z,7.83
2019-05-05T10:43:20.198Z,4.30
2019-05-05T10:45:54.547Z,8.30
2019-05-05T10:48:25.413Z,6.07
2019-05-05T10:50:56.668Z,7.83
2019-05-05T10:53:28.011Z,7.90
2019-05-05T10:55:59.566Z,7.23
2019-05-05T10:58:31.181Z,7.27
2019-05-05T11:01:04.281Z,4.97
2019-05-05T11:03:37.536Z,5.97
2019-05-05T11:06:09.336Z,5.73
2019-05-05T11:08:41.011Z,5.63
2019-05-05T11:11:13.700Z,5.20
2019-05-05T11:13:48.090Z,6.73
2019-05-05T11:16:19.499Z,9.93
2019-05-05T11:18:51.067Z,5.57
2019-05-05T11:21:23.693Z,4.50
2019-05-05T11:23:56.181Z,4.20
2019-05-05T11:26:27.524Z,5.57
2019-05-05T11:28:59.037Z,6.67
2019-05-05T11:31:30.515Z,5.50
2019-05-05T11:34:18.960Z,4.53
2019-05-05T11:37:11.979Z,4.17
2019-05-05T11:39:44.555Z,3.47
2019-05-05T11:42:16.039Z,4.43
2019-05-05T11:44:47.678Z,5.60
2019-05-05T11:47:20.067Z,5.87
2019-05-05T11:49:56.113Z,5.17
2019-05-05T11:52:25.950Z,5.40
2019-05-05T11:55:08.904Z,4.67
2019-05-05T11:57:31.574Z,3.97
2019-05-05T12:00:03.840Z,5.10
2019-05-05T12:02:37.308Z,5.20
2019-05-05T12:05:09.003Z,3.57
2019-05-05T12:07:40.669Z,4.27
2019-05-05T12:10:31.495Z,6.47
2019-05-05T12:13:04.304Z,3.93
2019-05-05T12:15:35.645Z,3.53
2019-05-05T12:18:08.479Z,3.20
2019-05-05T12:20:41.278Z,3.07
2019-05-05T12:23:12.635Z,3.60
2019-05-05T12:25:59.533Z,3.73
2019-05-05T12:28:49.718Z,6.07
2019-05-05T12:31:24.873Z,3.90
2019-05-05T12:33:56.869Z,5.40
2019-05-05T12:36:28.222Z,4.63
2019-05-05T12:39:24.953Z,3.83
2019-05-05T12:42:00.461Z,7.60
2019-05-05T12:44:42.293Z,3.87
2019-05-05T12:47:30.990Z,4.93
2019-05-05T12:50:02.633Z,3.27
2019-05-05T12:52:34.455Z,5.77
2019-05-05T12:55:06.612Z,4.07
2019-05-05T12:57:39.004Z,4.50
2019-05-05T13:00:14.572Z,3.70
2019-05-05T13:02:46.138Z,3.67
2019-05-05T13:05:17.614Z,4.70
2019-05-05T13:07:48.965Z,4.20
2019-05-05T13:10:24.372Z,5.63
2019-05-05T13:12:57.034Z,3.70
2019-05-05T13:15:28.509Z,4.10
2019-05-05T13:18:00.083Z,3.63
2019-05-05T13:20:47.948Z,4.27
2019-05-05T13:23:27.071Z,3.53
2019-05-05T13:26:04.392Z,4.27
2019-05-05T13:28:36.062Z,4.07
2019-05-05T13:31:07.420Z,3.60
2019-05-05T13:33:38.990Z,3.63
2019-05-05T13:36:10.352Z,4.13
2019-05-05T13:38:43.670Z,3.10
2019-05-05T13:41:15.021Z,3.57
2019-05-05T13:43:47.543Z,3.23
2019-05-05T13:46:24.738Z,4.20
2019-05-05T13:49:15.491Z,2.40
2019-05-05T13:51:48.159Z,5.57
2019-05-05T13:54:20.005Z,2.77
2019-05-05T13:56:52.440Z,3.57
2019-05-05T13:59:25.620Z,2.50
2019-05-05T14:01:57.777Z,3.00
2019-05-05T14:04:29.479Z,2.43
2019-05-05T14:07:04.023Z,3.10
2019-05-05T14:09:38.019Z,2.60
2019-05-05T14:12:09.598Z,4.00
2019-05-05T14:14:41.004Z,3.40
2019-05-05T14:17:17.473Z,5.03
2019-05-05T14:20:04.557Z,2.37
2019-05-05T14:22:25.126Z,2.87
2019-05-05T14:25:04.235Z,2.93
2019-05-05T14:27:35.265Z,2.53
2019-05-05T14:30:20.358Z,4.73
2019-05-05T14:32:51.842Z,10.07
2019-05-05T14:35:39.267Z,3.20
2019-05-05T14:38:15.374Z,1.70
2019-05-05T14:40:47.199Z,2.83
2019-05-05T14:43:18.796Z,2.60
2019-05-05T14:45:50.251Z,1.60
2019-05-05T14:48:21.665Z,2.30
2019-05-05T14:50:54.376Z,2.10
2019-05-05T14:53:25.745Z,3.37
2019-05-05T14:55:57.200Z,2.20
2019-05-05T14:58:29.083Z,2.30
2019-05-05T15:01:04.514Z,2.10
2019-05-05T15:03:36.427Z,3.30
2019-05-05T15:06:24.678Z,2.93
2019-05-05T15:09:03.908Z,2.97
2019-05-05T15:12:11.275Z,2.67
2019-05-05T15:14:43.939Z,4.43
2019-05-05T15:17:15.498Z,3.17
2019-05-05T15:19:46.885Z,3.20
2019-05-05T15:22:18.269Z,2.17
2019-05-05T15:24:49.592Z,3.13
2019-05-05T15:27:20.926Z,2.47
2019-05-05T15:29:54.113Z,2.43
2019-05-05T15:32:25.712Z,2.80
2019-05-05T15:34:57.337Z,2.17
2019-05-05T15:37:28.596Z,3.93
2019-05-05T15:39:59.945Z,2.97
2019-05-05T15:42:33.393Z,4.27
2019-05-05T15:45:05.056Z,2.40
2019-05-05T15:47:36.826Z,4.37
2019-05-05T15:50:09.099Z,2.67
2019-05-05T15:52:41.022Z,3.40
2019-05-05T15:55:14.373Z,2.23
2019-05-05T15:57:45.956Z,3.60
2019-05-05T16:00:18.572Z,4.00
2019-05-05T16:02:49.998Z,3.50
2019-05-05T16:05:24.150Z,3.00
2019-05-05T16:07:55.107Z,3.77
2019-05-05T16:10:26.455Z,3.43
2019-05-05T16:12:57.754Z,2.83
2019-05-05T16:15:51.288Z,2.20
2019-05-05T16:18:31.155Z,3.50
2019-05-05T16:21:29.827Z,2.47
2019-05-05T16:24:03.830Z,2.20
2019-05-05T16:26:35.304Z,2.17
2019-05-05T16:29:06.829Z,2.63
2019-05-05T16:31:38.546Z,2.00
2019-05-05T16:34:10.124Z,2.50
2019-05-05T16:36:41.574Z,1.40
2019-05-05T16:39:13.789Z,1.57
2019-05-05T16:41:46.481Z,2.63
2019-05-05T16:44:17.811Z,1.73
2019-05-05T16:46:49.167Z,1.80
2019-05-05T16:49:20.526Z,2.20
2019-05-05T16:52:00.773Z,2.87
2019-05-05T16:54:37.135Z,2.67
2019-05-05T16:57:08.860Z,3.23
2019-05-05T16:59:40.300Z,2.70
2019-05-05T17:02:13.841Z,2.23
2019-05-05T17:04:44.666Z,5.80
2019-05-05T17:07:17.853Z,7.90
2019-05-05T17:09:49.273Z,3.63
2019-05-05T17:12:21.739Z,2.37
2019-05-05T17:15:11.058Z,2.50
2019-05-05T17:18:32.552Z,2.27
2019-05-05T17:21:07.481Z,3.57
2019-05-05T17:23:38.802Z,3.17
2019-05-05T17:26:10.217Z,2.70
2019-05-05T17:28:41.912Z,2.27
2019-05-05T17:31:13.583Z,2.87
2019-05-05T17:33:49.505Z,2.33
2019-05-05T17:36:21.007Z,4.33
2019-05-05T17:38:54.383Z,1.57
2019-05-05T17:41:44.734Z,1.80
2019-05-05T17:44:26.248Z,4.17
2019-05-05T17:47:18.186Z,3.83
2019-05-05T17:49:58.987Z,1.70
2019-05-05T17:52:55.424Z,1.37
2019-05-05T17:55:33.656Z,1.90
2019-05-05T17:58:05.380Z,1.53
2019-05-05T18:00:46.692Z,2.33
2019-05-05T18:03:17.661Z,1.97
2019-05-05T18:06:20.252Z,2.17
2019-05-05T18:08:59.424Z,3.57
2019-05-05T18:11:57.203Z,3.30
2019-05-05T18:14:29.393Z,4.00
2019-05-05T18:17:01.118Z,2.90
2019-05-05T18:19:34.033Z,4.60
2019-05-05T18:22:05.761Z,3.17
2019-05-05T18:24:37.333Z,3.60
2019-05-05T18:27:09.357Z,5.00
2019-05-05T18:29:43.457Z,4.37
2019-05-05T18:32:14.430Z,4.10
2019-05-05T18:34:46.070Z,4.97
2019-05-05T18:37:17.634Z,4.20
2019-05-05T18:39:48.997Z,3.07
2019-05-05T18:42:24.404Z,2.63
2019-05-05T18:45:03.725Z,2.73
2019-05-05T18:47:36.401Z,4.60
2019-05-05T18:50:08.299Z,2.10
2019-05-05T18:52:39.685Z,2.30
2019-05-05T18:55:11.248Z,1.93
2019-05-05T18:57:43.495Z,2.07
2019-05-05T19:00:18.551Z,2.10
2019-05-05T19:02:54.122Z,2.10
2019-05-05T19:05:47.521Z,2.30
2019-05-05T19:08:51.846Z,2.23
2019-05-05T19:11:12.931Z,3.33
2019-05-05T19:13:44.777Z,3.13
2019-05-05T19:16:16.192Z,2.30
2019-05-05T19:18:47.763Z,3.07
2019-05-05T19:21:41.185Z,2.30
2019-05-05T19:24:14.479Z,3.23
2019-05-05T19:26:45.983Z,2.93
2019-05-05T19:29:17.379Z,3.03
2019-05-05T19:31:48.820Z,4.33
2019-05-05T19:34:20.681Z,3.13
2019-05-05T19:36:54.486Z,3.23
2019-05-05T19:39:25.092Z,4.13
2019-05-05T19:41:56.765Z,4.50
2019-05-05T19:44:28.229Z,4.13
2019-05-05T19:47:18.419Z,3.60
2019-05-05T19:49:56.184Z,2.67
2019-05-05T19:52:27.724Z,3.23
2019-05-05T19:54:59.625Z,2.23
2019-05-05T19:57:31.060Z,2.40
2019-05-05T20:00:03.967Z,1.87
2019-05-05T20:02:37.378Z,2.67
2019-05-05T20:05:09.151Z,3.03
2019-05-05T20:07:40.598Z,1.73
2019-05-05T20:10:12.188Z,2.30
2019-05-05T20:12:44.887Z,3.27
2019-05-05T20:15:23.754Z,6.33
2019-05-05T20:17:55.294Z,6.00
2019-05-05T20:20:26.695Z,3.53
2019-05-05T20:22:58.311Z,3.63
2019-05-05T20:25:29.826Z,3.60
2019-05-05T20:28:01.382Z,2.27
2019-05-05T20:30:34.239Z,2.53
2019-05-05T20:33:10.754Z,2.87
2019-05-05T20:35:48.043Z,3.07
2019-05-05T20:38:44.459Z,3.07
2019-05-05T20:41:17.067Z,3.87
2019-05-05T20:43:48.545Z,2.93
2019-05-05T20:46:20.059Z,4.40
2019-05-05T20:48:51.512Z,3.80
2019-05-05T20:51:24.251Z,2.40
2019-05-05T20:53:55.765Z,1.83
2019-05-05T20:56:27.261Z,2.40
2019-05-05T20:58:58.514Z,4.33
2019-05-05T21:01:30.099Z,2.70
2019-05-05T21:04:01.655Z,2.83
2019-05-05T21:06:34.223Z,3.47
2019-05-05T21:09:07.636Z,2.47
2019-05-05T21:11:39.498Z,2.73
2019-05-05T21:14:11.099Z,3.70
2019-05-05T21:16:44.063Z,3.00
2019-05-05T21:19:15.587Z,3.03
2019-05-05T21:21:50.311Z,2.43
2019-05-05T21:24:23.804Z,2.60
2019-05-05T21:27:00.560Z,3.10
2019-05-05T21:29:39.530Z,2.10
2019-05-05T21:32:04.984Z,4.43
2019-05-05T21:34:36.804Z,2.33
2019-05-05T21:37:08.202Z,2.90
2019-05-05T21:39:39.441Z,6.97
2019-05-05T21:42:11.185Z,3.30
2019-05-05T21:44:44.290Z,3.80
2019-05-05T21:47:15.586Z,3.47
2019-05-05T21:49:47.148Z,4.47
2019-05-05T21:52:47.046Z,2.73
2019-05-05T21:55:33.936Z,3.70
2019-05-05T21:58:16.818Z,2.87
2019-05-05T22:01:26.613Z,3.47
2019-05-05T22:03:55.649Z,2.63
2019-05-05T22:06:26.951Z,3.80
2019-05-05T22:08:58.265Z,3.13
2019-05-05T22:11:29.626Z,2.03
2019-05-05T22:14:00.890Z,2.27
2019-05-05T22:16:35.284Z,4.10
2019-05-05T22:19:06.315Z,3.53
2019-05-05T22:21:51.382Z,2.77
2019-05-05T22:24:23.396Z,2.47
2019-05-05T22:26:54.908Z,2.70
2019-05-05T22:29:26.340Z,2.53
2019-05-05T22:31:57.713Z,3.83
2019-05-05T22:34:29.153Z,3.50
2019-05-05T22:37:00.566Z,5.23
2019-05-05T22:39:33.777Z,4.97
2019-05-05T22:42:05.457Z,5.27
2019-05-05T22:44:37.076Z,3.37
2019-05-05T22:47:08.528Z,3.30
2019-05-05T22:49:39.789Z,4.43
2019-05-05T22:52:11.239Z,3.03
2019-05-05T22:54:44.385Z,6.13
2019-05-05T22:57:16.047Z,3.70
2019-05-05T22:59:47.880Z,3.57
2019-05-05T23:02:20.981Z,4.30
2019-05-05T23:04:58.577Z,3.80
2019-05-05T23:07:31.704Z,4.67
2019-05-05T23:10:04.574Z,5.90
2019-05-05T23:12:36.105Z,3.27
2019-05-05T23:15:08.914Z,4.23
2019-05-05T23:17:47.338Z,4.43
2019-05-05T23:21:10.526Z,4.57
2019-05-05T23:24:19.226Z,3.43
2019-05-05T23:26:54.430Z,3.70
2019-05-05T23:29:26.614Z,4.60
2019-05-05T23:31:58.180Z,4.57
2019-05-05T23:34:29.598Z,4.00
2019-05-05T23:37:01.131Z,4.13
2019-05-05T23:39:32.528Z,3.67
2019-05-05T23:42:04.189Z,3.63
2019-05-05T23:44:35.465Z,4.40
2019-05-05T23:47:06.782Z,3.30
2019-05-05T23:49:38.038Z,3.70
2019-05-05T23:52:09.434Z,3.80
2019-05-05T23:54:40.736Z,4.23
2019-05-05T23:57:13.787Z,3.87
2019-05-05T23:59:45.083Z,3.80
